Time;durP1;ratioP1;P1;durP2;ratioP2;P2;SDS_P1;SDS_P2;PMS_P1;PMS_P2;Temp;Humidity;BMP_temperature;BMP_pressure;BME280_temperature;BME280_humidity;BME280_pressure;Samples;Min_cycle;Max_cycle;Signal;HPM_P1;HPM_P2
2022/07/17 00:01:19;;;;;;;3.72;2.13;;;;;;;;;;5080091;28;20047;-74
2022/07/17 00:03:48;;;;;;;4.38;1.80;;;;;;;;;;5090758;28;20048;-74
2022/07/17 00:06:14;;;;;;;7.28;2.45;;;;;;;;;;5090387;28;20076;-74
2022/07/17 00:08:40;;;;;;;5.47;2.20;;;;;;;;;;5087325;28;20422;-74
2022/07/17 00:11:06;;;;;;;4.97;1.80;;;;;;;;;;5071317;28;20044;-74
2022/07/17 00:13:33;;;;;;;4.35;2.28;;;;;;;;;;5093026;28;20105;-74
2022/07/17 00:15:59;;;;;;;5.15;2.40;;;;;;;;;;5090756;28;20066;-74
2022/07/17 00:18:25;;;;;;;5.55;2.03;;;;;;;;;;5089413;28;20101;-74
2022/07/17 00:20:51;;;;;;;5.22;1.95;;;;;;;;;;5096309;28;20043;-74
2022/07/17 00:23:18;;;;;;;4.90;2.17;;;;;;;;;;5096139;28;20090;-74
2022/07/17 00:25:44;;;;;;;4.75;2.70;;;;;;;;;;5093236;28;20039;-74
2022/07/17 00:28:11;;;;;;;3.58;2.35;;;;;;;;;;5089695;28;20044;-74
2022/07/17 00:30:38;;;;;;;4.47;2.40;;;;;;;;;;5068447;28;20043;-74
2022/07/17 00:33:04;;;;;;;4.60;2.05;;;;;;;;;;5092981;28;20368;-74
2022/07/17 00:35:30;;;;;;;5.35;2.85;;;;;;;;;;5073266;28;20302;-75
2022/07/17 00:37:56;;;;;;;5.20;2.20;;;;;;;;;;5077883;28;20047;-74
2022/07/17 00:40:24;;;;;;;6.75;2.85;;;;;;;;;;5092410;28;20402;-74
2022/07/17 00:42:51;;;;;;;4.70;2.30;;;;;;;;;;5103434;28;20543;-74
2022/07/17 00:45:17;;;;;;;5.38;2.80;;;;;;;;;;5102799;28;20043;-74
2022/07/17 00:47:57;;;;;;;4.55;2.65;;;;;;;;;;5082032;28;20282;-74
2022/07/17 00:50:25;;;;;;;3.50;2.45;;;;;;;;;;5082248;28;20101;-74
2022/07/17 00:52:51;;;;;;;4.55;3.08;;;;;;;;;;5081234;28;20044;-74
2022/07/17 00:55:17;;;;;;;6.43;2.85;;;;;;;;;;5093233;28;20075;-74
2022/07/17 00:57:45;;;;;;;6.47;3.17;;;;;;;;;;5100069;28;20047;-74
2022/07/17 01:00:12;;;;;;;4.18;3.20;;;;;;;;;;5093416;28;20039;-74
2022/07/17 01:02:38;;;;;;;10.30;3.35;;;13.80;99.90;;;;;;5107125;28;20489;-75
2022/07/17 01:05:05;;;;;;;3.97;2.83;;;12.90;99.90;;;;;;5089618;28;20036;-74
2022/07/17 01:07:32;;;;;;;3.88;2.55;;;12.90;99.90;;;;;;5074399;28;20032;-74
2022/07/17 01:09:58;;;;;;;5.82;3.67;;;12.80;99.90;;;;;;5094365;28;20132;-74
2022/07/17 01:12:24;;;;;;;5.90;3.38;;;12.80;99.90;;;;;;5099244;28;20035;-74
2022/07/17 01:14:51;;;;;;;8.30;3.13;;;12.80;99.90;;;;;;5093679;28;20032;-75
2022/07/17 01:17:17;;;;;;;4.65;3.28;;;12.70;99.90;;;;;;5096901;28;20043;-75
2022/07/17 01:19:43;;;;;;;5.13;3.00;;;12.70;99.90;;;;;;5097460;28;20097;-74
2022/07/17 01:22:09;;;;;;;6.22;3.85;;;12.70;99.90;;;;;;5091977;28;20089;-75
2022/07/17 01:24:39;;;;;;;14.25;3.95;;;12.70;99.90;;;;;;5096456;28;20071;-74
2022/07/17 01:27:06;;;;;;;5.00;3.75;;;12.70;99.90;;;;;;5094308;28;20211;-75
2022/07/17 01:29:31;;;;;;;8.88;3.63;;;12.60;99.90;;;;;;5098121;28;20477;-75
2022/07/17 01:31:57;;;;;;;6.13;4.28;;;12.60;99.90;;;;;;5094279;28;20053;-74
2022/07/17 01:34:23;;;;;;;6.53;4.57;;;12.60;99.90;;;;;;5091187;28;20138;-75
2022/07/17 01:36:49;;;;;;;4.50;2.83;;;12.70;99.90;;;;;;5079296;28;20048;-74
2022/07/17 01:39:15;;;;;;;4.95;3.03;;;12.70;99.90;;;;;;5092018;28;20560;-75
2022/07/17 01:41:41;;;;;;;5.72;2.92;;;12.80;99.90;;;;;;5100208;28;20088;-74
2022/07/17 01:44:08;;;;;;;4.82;3.42;;;12.70;99.90;;;;;;5095569;28;20044;-74
2022/07/17 01:46:34;;;;;;;4.20;3.10;;;12.70;99.90;;;;;;5093417;28;20047;-75
2022/07/17 01:49:03;;;;;;;6.53;3.58;;;12.70;99.90;;;;;;5103825;28;20447;-74
2022/07/17 01:51:29;;;;;;;5.93;3.28;;;12.70;99.90;;;;;;5098209;28;20453;-74
2022/07/17 01:53:54;;;;;;;8.25;4.10;;;12.60;99.90;;;;;;5057522;28;20059;-74
2022/07/17 01:56:21;;;;;;;4.05;2.90;;;12.50;99.90;;;;;;5112686;27;20101;-75
2022/07/17 01:58:47;;;;;;;9.13;3.65;;;12.50;99.90;;;;;;5104544;28;20040;-74
2022/07/17 02:01:12;;;;;;;5.88;3.45;;;12.60;99.90;;;;;;5055739;28;20135;-75
2022/07/17 02:03:38;;;;;;;7.40;3.22;;;12.60;99.90;;;;;;5095746;28;20036;-74
2022/07/17 02:06:04;;;;;;;6.88;3.70;;;12.60;99.90;;;;;;5095886;28;20040;-74
2022/07/17 02:08:30;;;;;;;4.43;3.35;;;12.60;99.90;;;;;;5094522;28;20478;-75
2022/07/17 02:10:55;;;;;;;6.82;3.50;;;12.60;99.90;;;;;;5095068;28;20040;-74
2022/07/17 02:13:21;;;;;;;5.78;3.45;;;12.60;99.90;;;;;;5091756;28;20390;-74
2022/07/17 02:15:47;;;;;;;4.82;3.08;;;12.50;99.90;;;;;;5091027;28;20044;-74
2022/07/17 02:18:13;;;;;;;6.60;4.10;;;12.60;99.90;;;;;;5106224;27;20047;-74
2022/07/17 02:20:38;;;;;;;5.22;3.53;;;12.60;99.90;;;;;;5107482;27;20054;-74
2022/07/17 02:23:04;;;;;;;7.30;3.72;;;12.60;99.90;;;;;;5095298;28;20100;-75
2022/07/17 02:25:30;;;;;;;4.97;3.33;;;12.60;99.90;;;;;;5072874;28;20032;-75
2022/07/17 02:27:56;;;;;;;6.07;3.70;;;12.60;99.90;;;;;;5091966;28;20039;-75
2022/07/17 02:30:21;;;;;;;6.07;3.33;;;12.60;99.90;;;;;;5097110;28;20032;-74
2022/07/17 02:32:47;;;;;;;7.03;4.25;;;12.60;99.90;;;;;;5096479;28;20539;-74
2022/07/17 02:35:14;;;;;;;7.03;3.30;;;12.60;99.90;;;;;;5092143;28;20079;-74
2022/07/17 02:37:42;;;;;;;5.72;3.90;;;12.60;99.90;;;;;;5094679;28;20042;-74
2022/07/17 02:40:09;;;;;;;8.05;3.92;;;12.50;99.90;;;;;;5092429;28;20127;-75
2022/07/17 02:42:35;;;;;;;6.40;3.83;;;12.50;99.90;;;;;;5091963;28;20083;-74
2022/07/17 02:45:01;;;;;;;5.18;3.55;;;12.50;99.90;;;;;;5095952;28;20504;-75
2022/07/17 02:47:29;;;;;;;6.32;3.08;;;12.50;99.90;;;;;;5078141;28;20115;-75
2022/07/17 02:49:55;;;;;;;4.63;3.55;;;12.50;99.90;;;;;;5102679;27;20119;-75
2022/07/17 02:52:22;;;;;;;5.00;2.95;;;12.40;99.90;;;;;;5087939;28;20044;-75
2022/07/17 02:54:48;;;;;;;7.20;3.22;;;12.40;99.90;;;;;;5110590;27;20161;-75
2022/07/17 02:57:14;;;;;;;5.22;3.40;;;12.40;99.90;;;;;;5077588;28;20071;-75
2022/07/17 02:59:40;;;;;;;7.38;3.67;;;12.40;99.90;;;;;;5081024;28;20078;-75
2022/07/17 03:02:06;;;;;;;7.40;3.28;;;12.30;99.90;;;;;;5078356;28;20071;-75
2022/07/17 03:04:32;;;;;;;5.57;3.58;;;12.30;99.90;;;;;;5091701;28;20553;-75
2022/07/17 03:06:57;;;;;;;4.57;3.28;;;12.30;99.90;;;;;;5089423;28;20439;-75
2022/07/17 03:09:23;;;;;;;4.25;3.13;;;12.30;99.90;;;;;;5099852;27;20082;-75
2022/07/17 03:11:49;;;;;;;4.90;3.13;;;12.30;99.90;;;;;;5095761;28;20047;-74
2022/07/17 03:14:15;;;;;;;4.78;3.13;;;12.30;99.90;;;;;;5079663;28;20464;-75
2022/07/17 03:16:40;;;;;;;6.10;3.50;;;12.20;99.90;;;;;;5095972;28;20055;-75
2022/07/17 03:19:06;;;;;;;7.80;3.42;;;12.20;99.90;;;;;;5108547;27;20099;-75
2022/07/17 03:21:32;;;;;;;4.97;3.50;;;12.20;99.90;;;;;;5091462;28;20221;-75
2022/07/17 03:23:58;;;;;;;4.80;3.40;;;12.20;99.90;;;;;;5093916;28;20031;-75
2022/07/17 03:26:24;;;;;;;4.72;2.63;;;12.20;99.90;;;;;;5091165;28;20520;-75
2022/07/17 03:28:49;;;;;;;3.92;3.22;;;12.20;99.90;;;;;;5069139;28;20032;-75
2022/07/17 03:31:15;;;;;;;9.90;3.42;;;12.20;99.90;;;;;;5102416;27;20393;-75
2022/07/17 03:33:41;;;;;;;8.55;4.47;;;12.30;99.90;;;;;;5088959;28;20047;-75
2022/07/17 03:36:07;;;;;;;6.85;3.65;;;12.30;99.90;;;;;;5081028;28;20072;-75
2022/07/17 03:38:33;;;;;;;6.38;3.92;;;12.30;99.90;;;;;;5089266;28;20509;-75
2022/07/17 03:40:59;;;;;;;7.00;3.47;;;12.30;99.90;;;;;;5088788;28;20047;-75
2022/07/17 03:43:26;;;;;;;7.35;3.85;;;12.30;99.90;;;;;;5089949;28;20054;-75
2022/07/17 03:45:52;;;;;;;5.60;3.53;;;12.30;99.90;;;;;;5085645;28;20417;-75
2022/07/17 03:48:18;;;;;;;4.57;3.67;;;12.40;99.90;;;;;;5092554;28;20477;-75
2022/07/17 03:50:44;;;;;;;5.28;4.05;;;12.40;99.90;;;;;;5088914;28;20039;-75
2022/07/17 03:53:10;;;;;;;9.68;3.42;;;12.40;99.90;;;;;;5100356;27;20044;-75
2022/07/17 03:55:35;;;;;;;7.75;3.40;;;12.40;99.90;;;;;;5107990;27;20048;-75
2022/07/17 03:58:02;;;;;;;5.05;3.40;;;12.50;99.90;;;;;;5090973;28;20548;-75
2022/07/17 04:00:28;;;;;;;7.28;4.13;;;12.50;99.90;;;;;;5098829;28;20060;-75
2022/07/17 04:02:54;;;;;;;6.00;3.45;;;12.60;99.90;;;;;;5094207;28;20405;-75
2022/07/17 04:05:20;;;;;;;11.10;4.63;;;12.60;99.90;;;;;;5091143;28;20035;-75
2022/07/17 04:07:46;;;;;;;7.68;3.35;;;12.60;99.90;;;;;;5079983;28;20123;-75
2022/07/17 04:10:13;;;;;;;6.72;3.47;;;;;;;;;;5087067;28;20126;-75
2022/07/17 04:12:40;;;;;;;5.07;3.20;;;;;;;;;;5089934;28;20062;-75
2022/07/17 04:15:08;;;;;;;5.68;3.50;;;12.60;99.90;;;;;;5088765;28;20048;-75
2022/07/17 04:17:37;;;;;;;5.30;3.33;;;;;;;;;;5080667;28;20055;-75
2022/07/17 04:20:06;;;;;;;5.03;3.50;;;;;;;;;;5062907;28;20041;-75
2022/07/17 04:22:33;;;;;;;5.88;3.45;;;;;;;;;;5099918;27;20165;-75
2022/07/17 04:24:59;;;;;;;6.03;3.75;;;;;;;;;;5099174;28;20497;-75
2022/07/17 04:27:25;;;;;;;8.95;4.20;;;;;;;;;;5077486;28;20054;-75
2022/07/17 04:29:51;;;;;;;5.30;3.83;;;;;;;;;;5084092;28;20032;-75
2022/07/17 04:32:17;;;;;;;5.57;3.67;;;;;;;;;;5085851;28;20041;-75
2022/07/17 04:34:43;;;;;;;6.03;3.45;;;;;;;;;;5086432;28;20043;-75
2022/07/17 04:37:09;;;;;;;4.88;3.58;;;;;;;;;;5090827;28;20044;-75
2022/07/17 04:39:36;;;;;;;7.72;4.40;;;;;;;;;;5088807;28;20032;-75
2022/07/17 04:42:02;;;;;;;6.57;2.97;;;;;;;;;;5077289;28;20114;-75
2022/07/17 04:44:28;;;;;;;4.95;2.90;;;;;;;;;;5093807;28;20059;-75
2022/07/17 04:46:56;;;;;;;5.75;3.25;;;;;;;;;;5082389;28;20036;-75
2022/07/17 04:49:22;;;;;;;5.80;2.97;;;;;;;;;;5074022;28;20048;-75
2022/07/17 04:51:48;;;;;;;5.82;2.80;;;;;;;;;;5097276;28;20093;-75
2022/07/17 04:54:14;;;;;;;4.10;2.55;;;;;;;;;;5088459;28;20044;-75
2022/07/17 04:56:40;;;;;;;4.38;3.20;;;;;;;;;;5090707;28;20373;-75
2022/07/17 04:59:06;;;;;;;4.40;2.95;;;;;;;;;;5091040;28;20048;-75
2022/07/17 05:01:33;;;;;;;5.35;3.03;;;;;;;;;;5103971;28;20167;-75
2022/07/17 05:04:00;;;;;;;6.55;3.60;;;;;;;;;;5087525;28;20575;-75
2022/07/17 05:06:26;;;;;;;6.72;3.40;;;;;;;;;;5086512;28;20121;-75
2022/07/17 05:08:52;;;;;;;5.18;3.42;;;;;;;;;;5087804;28;20040;-75
2022/07/17 05:11:18;;;;;;;5.63;2.88;;;;;;;;;;5079612;28;20032;-75
2022/07/17 05:13:45;;;;;;;8.15;3.35;;;;;;;;;;5099687;28;20051;-75
2022/07/17 05:16:11;;;;;;;9.63;3.97;;;;;;;;;;5090886;28;20505;-75
2022/07/17 05:18:37;;;;;;;5.78;3.00;;;;;;;;;;5092998;28;20043;-75
2022/07/17 05:21:03;;;;;;;5.25;2.45;;;;;;;;;;5088798;28;20105;-75
2022/07/17 05:23:30;;;;;;;5.72;3.35;;;;;;;;;;5089352;28;20294;-75
2022/07/17 05:25:56;;;;;;;6.05;2.65;;;;;;;;;;5084574;28;21095;-75
2022/07/17 05:28:25;;;;;;;3.70;2.33;;;;;;;;;;5094177;28;20123;-75
2022/07/17 05:30:51;;;;;;;3.70;2.42;;;;;;;;;;5088369;28;20388;-75
2022/07/17 05:33:17;;;;;;;5.63;2.50;;;;;;;;;;5107130;28;20044;-75
2022/07/17 05:35:43;;;;;;;11.25;2.65;;;;;;;;;;5108033;28;20046;-75
2022/07/17 05:38:10;;;;;;;7.00;2.53;;;;;;;;;;5075099;28;20048;-75
2022/07/17 05:40:36;;;;;;;5.03;2.53;;;;;;;;;;5091193;28;20044;-75
2022/07/17 05:43:02;;;;;;;12.02;3.28;;;;;;;;;;5088547;28;20515;-75
2022/07/17 05:45:29;;;;;;;5.00;2.75;;;;;;;;;;5098697;28;20519;-75
2022/07/17 05:47:55;;;;;;;8.27;2.58;;;;;;;;;;5090713;28;20036;-75
2022/07/17 05:50:21;;;;;;;5.20;1.90;;;;;;;;;;5078147;28;20036;-75
2022/07/17 05:52:47;;;;;;;6.07;3.10;;;;;;;;;;5089704;28;20067;-75
2022/07/17 05:55:13;;;;;;;5.25;2.38;;;;;;;;;;5098812;28;20126;-75
2022/07/17 05:57:39;;;;;;;6.40;2.70;;;;;;;;;;5107927;27;20173;-74
2022/07/17 06:00:06;;;;;;;6.00;2.20;;;;;;;;;;5091767;28;20036;-75
2022/07/17 06:02:32;;;;;;;6.82;2.92;;;;;;;;;;5095983;28;20125;-74
2022/07/17 06:04:58;;;;;;;6.93;2.60;;;;;;;;;;5081202;28;20088;-74
2022/07/17 06:07:24;;;;;;;5.22;3.20;;;;;;;;;;5096737;28;20043;-74
2022/07/17 06:09:51;;;;;;;5.28;2.63;;;;;;;;;;5077332;28;20044;-75
2022/07/17 06:12:17;;;;;;;5.82;2.33;;;;;;;;;;5091937;28;20111;-75
2022/07/17 06:14:43;;;;;;;7.95;2.65;;;;;;;;;;5092865;28;20500;-74
2022/07/17 06:17:09;;;;;;;4.45;2.28;;;;;;;;;;5092265;28;20554;-74
2022/07/17 06:19:35;;;;;;;5.05;2.17;;;;;;;;;;5091335;28;20101;-74
2022/07/17 06:22:01;;;;;;;5.68;2.28;;;;;;;;;;5087385;28;20047;-74
2022/07/17 06:24:27;;;;;;;3.95;2.50;;;;;;;;;;5112376;27;20044;-75
2022/07/17 06:26:54;;;;;;;6.90;2.17;;;;;;;;;;5094462;28;20031;-74
2022/07/17 06:29:20;;;;;;;5.63;2.20;;;;;;;;;;5105588;28;20043;-74
2022/07/17 06:31:46;;;;;;;4.18;2.40;;;;;;;;;;5085808;28;20262;-75
2022/07/17 06:34:12;;;;;;;7.53;2.55;;;;;;;;;;5096468;28;20094;-74
2022/07/17 06:36:38;;;;;;;5.75;1.90;;;;;;;;;;5076136;28;20475;-74
2022/07/17 06:39:04;;;;;;;4.60;2.10;;;;;;;;;;5076344;28;20048;-74
2022/07/17 06:41:30;;;;;;;5.20;2.33;;;;;;;;;;5091156;28;20032;-75
2022/07/17 06:43:56;;;;;;;3.50;1.95;;;;;;;;;;5091796;28;20084;-74
2022/07/17 06:46:23;;;;;;;6.63;2.05;;;;;;;;;;5103113;27;20048;-74
2022/07/17 06:48:51;;;;;;;4.30;1.85;;;;;;;;;;5107015;27;20043;-72
2022/07/17 06:51:18;;;;;;;3.42;1.88;;;;;;;;;;5092814;28;20040;-74
2022/07/17 06:53:44;;;;;;;4.72;1.77;;;;;;;;;;5097141;27;20502;-75
2022/07/17 06:56:10;;;;;;;5.25;2.10;;;;;;;;;;5097237;28;20040;-74
2022/07/17 06:58:36;;;;;;;4.32;1.75;;;;;;;;;;5094807;28;20044;-74
2022/07/17 07:01:03;;;;;;;3.78;1.77;;;;;;;;;;5074054;28;20489;-72
2022/07/17 07:03:29;;;;;;;7.82;2.78;;;;;;;;;;5102407;27;20493;-72
2022/07/17 07:05:55;;;;;;;7.07;2.10;;;;;;;;;;5091645;28;20036;-72
2022/07/17 07:08:21;;;;;;;6.22;1.88;;;;;;;;;;5090031;28;20038;-72
2022/07/17 07:10:47;;;;;;;6.13;2.67;;;;;;;;;;5110651;27;20168;-72
2022/07/17 07:13:14;;;;;;;8.45;1.90;;;;;;;;;;5101028;27;20043;-72
2022/07/17 07:15:40;;;;;;;7.25;2.67;;;;;;;;;;5110016;27;20048;-71
2022/07/17 07:18:08;;;;;;;4.53;3.33;;;;;;;;;;5102219;27;20043;-72
2022/07/17 07:20:34;;;;;;;12.07;2.15;;;;;;;;;;5091188;28;20128;-72
2022/07/17 07:23:01;;;;;;;4.32;1.70;;;;;;;;;;5089660;28;20048;-72
2022/07/17 07:25:27;;;;;;;5.45;1.73;;;;;;;;;;5095229;28;20512;-72
2022/07/17 07:27:53;;;;;;;5.47;2.20;;;;;;;;;;5098798;28;20248;-74
2022/07/17 07:30:19;;;;;;;5.90;1.83;;;;;;;;;;5090190;28;20040;-74
2022/07/17 07:32:46;;;;;;;4.40;1.63;;;;;;;;;;5074990;28;20119;-74
2022/07/17 07:35:12;;;;;;;7.07;1.85;;;;;;;;;;5090695;28;20059;-74
2022/07/17 07:37:39;;;;;;;6.28;1.95;;;;;;;;;;5076484;28;20378;-74
2022/07/17 07:40:06;;;;;;;6.35;2.20;;;;;;;;;;5076217;28;20068;-74
2022/07/17 07:42:33;;;;;;;4.60;1.92;;;;;;;;;;5093476;28;20532;-74
2022/07/17 07:45:00;;;;;;;4.05;1.30;;;;;;;;;;5094280;28;20048;-74
2022/07/17 07:47:26;;;;;;;4.68;2.28;;;;;;;;;;5090097;28;20131;-74
2022/07/17 07:49:53;;;;;;;5.13;1.45;;;;;;;;;;5093738;28;20043;-75
2022/07/17 07:52:19;;;;;;;5.15;1.58;;;;;;;;;;5094246;28;20439;-74
2022/07/17 07:54:46;;;;;;;4.18;1.70;;;;;;;;;;5090061;28;20081;-74
2022/07/17 07:57:12;;;;;;;2.92;1.33;;;;;;;;;;5096801;28;20048;-75
2022/07/17 07:59:38;;;;;;;3.63;1.38;;;;;;;;;;5089090;28;20032;-75
2022/07/17 08:02:05;;;;;;;4.82;1.73;;;;;;;;;;5093667;28;20044;-74
2022/07/17 08:04:31;;;;;;;5.75;2.22;;;;;;;;;;5087866;28;20040;-75
2022/07/17 08:06:57;;;;;;;3.60;1.35;;;;;;;;;;5096973;28;20569;-74
2022/07/17 08:09:23;;;;;;;5.43;1.98;;;;;;;;;;5092646;28;20048;-74
2022/07/17 08:11:49;;;;;;;3.88;1.52;;;;;;;;;;5090952;28;20046;-75
2022/07/17 08:14:16;;;;;;;6.30;2.00;;;;;;;;;;5082782;28;20379;-75
2022/07/17 08:16:42;;;;;;;7.63;1.60;;;;;;;;;;5090956;28;20101;-75
2022/07/17 08:19:08;;;;;;;6.63;1.48;;;;;;;;;;5091926;28;20044;-74
2022/07/17 08:21:34;;;;;;;6.28;1.88;;;;;;;;;;5092237;28;20454;-75
2022/07/17 08:24:00;;;;;;;5.07;1.70;;;;;;;;;;5092433;28;20481;-75
2022/07/17 08:26:26;;;;;;;3.95;2.00;;;;;;;;;;5104812;28;20050;-74
2022/07/17 08:28:53;;;;;;;4.70;2.13;;;;;;;;;;5071741;28;20100;-74
2022/07/17 08:31:19;;;;;;;4.45;1.77;;;;;;;;;;5092871;28;20071;-74
2022/07/17 08:33:47;;;;;;;6.10;1.73;;;;;;;;;;5097868;28;20048;-75
2022/07/17 08:36:13;;;;;;;3.88;2.00;;;;;;;;;;5103080;27;20067;-74
2022/07/17 08:38:39;;;;;;;3.08;1.48;;;;;;;;;;5093708;28;20051;-74
2022/07/17 08:41:09;;;;;;;6.13;2.05;;;;;;;;;;5063113;28;20043;-74
2022/07/17 08:43:36;;;;;;;4.75;1.67;;;;;;;;;;5093713;28;20052;-74
2022/07/17 08:46:03;;;;;;;3.28;1.67;;;;;;;;;;5094762;28;20051;-74
2022/07/17 08:48:31;;;;;;;4.47;1.50;;;;;;;;;;5097030;28;20041;-74
2022/07/17 08:50:59;;;;;;;7.90;1.63;;;;;;;;;;5088463;28;20059;-74
2022/07/17 08:53:26;;;;;;;3.97;1.60;;;;;;;;;;5091661;28;20285;-74
2022/07/17 08:55:52;;;;;;;2.60;1.58;;;;;;;;;;5089615;28;20123;-74
2022/07/17 08:58:18;;;;;;;4.65;1.60;;;;;;;;;;5097025;28;20109;-74
2022/07/17 09:00:44;;;;;;;3.55;1.45;;;;;;;;;;5090048;28;20077;-75
2022/07/17 09:03:11;;;;;;;8.23;1.88;;;;;;;;;;5109677;28;20051;-75
2022/07/17 09:05:38;;;;;;;8.32;1.92;;;;;;;;;;5088378;28;20040;-74
2022/07/17 09:08:05;;;;;;;2.50;1.20;;;;;;;;;;5088937;28;20277;-74
2022/07/17 09:10:41;;;;;;;6.93;2.30;;;;;;;;;;5091465;28;20040;-74
2022/07/17 09:13:24;;;;;;;5.93;1.85;;;;;;;;;;5096527;28;20109;-75
2022/07/17 09:15:50;;;;;;;;;;;;;;;;;;5101034;28;20042;-75
2022/07/17 09:18:17;;;;;;;3.78;1.60;;;;;;;;;;5081378;28;19915;-74
2022/07/17 09:20:57;;;;;;;2.78;1.92;;;;;;;;;;5110109;27;20048;-74
2022/07/17 09:23:24;;;;;;;3.90;1.80;;;;;;;;;;5094316;28;20043;-75
2022/07/17 09:25:52;;;;;;;2.92;1.45;;;;;;;;;;5097925;28;20215;-71
2022/07/17 09:28:18;;;;;;;4.10;1.63;;;;;;;;;;5108363;27;20040;-72
2022/07/17 09:30:46;;;;;;;4.35;1.58;;;;;;;;;;5091281;28;20040;-72
2022/07/17 09:33:27;;;;;;;4.40;1.70;;;;;;;;;;5097236;28;20051;-72
2022/07/17 09:35:54;;;;;;;6.28;1.80;;;;;;;;;;5092316;28;20062;-73
2022/07/17 09:38:38;;;;;;;5.60;2.50;;;;;;;;;;5092525;28;20490;-73
2022/07/17 09:41:11;;;;;;;4.03;1.95;;;;;;;;;;5091640;28;20127;-72
2022/07/17 09:43:44;;;;;;;4.45;1.73;;;;;;;;;;5082464;28;20089;-72
2022/07/17 09:46:12;;;;;;;8.23;2.55;;;;;;;;;;5092906;28;20052;-72
2022/07/17 09:48:42;;;;;;;2.95;1.63;;;;;;;;;;5091558;28;20101;-72
2022/07/17 09:51:09;;;;;;;1.80;1.40;;;;;;;;;;5079036;28;20691;-74
2022/07/17 09:53:36;;;;;;;8.18;2.10;;;;;;;;;;5092029;28;20074;-75
2022/07/17 09:56:03;;;;;;;4.20;1.83;;;;;;;;;;5090785;28;20086;-74
2022/07/17 09:58:30;;;;;;;4.80;1.80;;;;;;;;;;5109956;27;20058;-75
2022/07/17 10:00:57;;;;;;;3.47;1.50;;;;;;;;;;5095086;28;20518;-74
2022/07/17 10:03:23;;;;;;;4.57;1.70;;;;;;;;;;5097807;28;20047;-74
2022/07/17 10:05:49;;;;;;;6.38;2.38;;;;;;;;;;5075467;28;20060;-74
2022/07/17 10:08:15;;;;;;;3.80;1.90;;;;;;;;;;5107941;27;20056;-74
2022/07/17 10:10:42;;;;;;;5.65;1.80;;;;;;;;;;5092488;28;20043;-74
2022/07/17 10:13:08;;;;;;;4.60;1.50;;;;;;;;;;5095185;28;20071;-74
2022/07/17 10:15:34;;;;;;;4.05;1.98;;;;;;;;;;5092977;28;20400;-74
2022/07/17 10:18:04;;;;;;;7.97;1.52;;;;;;;;;;5088308;28;20127;-74
2022/07/17 10:20:31;;;;;;;7.57;1.98;;;;;;;;;;5105075;27;20036;-74
2022/07/17 10:22:57;;;;;;;3.75;1.58;;;;;;;;;;5102733;27;20067;-74
2022/07/17 10:25:23;;;;;;;6.75;1.80;;;;;;;;;;5091675;28;20070;-74
2022/07/17 10:27:52;;;;;;;3.17;1.60;;;;;;;;;;5093573;28;20028;-74
2022/07/17 10:30:26;;;;;;;2.75;1.55;;;;;;;;;;5092791;28;20032;-74
2022/07/17 10:32:58;;;;;;;3.53;1.65;;;;;;;;;;5096621;28;20036;-74
2022/07/17 10:35:24;;;;;;;3.40;1.63;;;;;;;;;;5094144;28;20036;-74
2022/07/17 10:37:50;;;;;;;3.25;1.58;;;;;;;;;;5104687;27;20278;-74
2022/07/17 10:40:21;;;;;;;4.40;1.50;;;;;;;;;;5093871;28;20552;-74
2022/07/17 10:42:51;;;;;;;4.82;1.40;;;;;;;;;;5090820;28;20043;-74
2022/07/17 10:45:18;;;;;;;3.25;2.08;;;;;;;;;;5096347;28;20083;-74
2022/07/17 10:47:46;;;;;;;2.58;1.50;;;;;;;;;;5102684;27;20050;-73
2022/07/17 10:50:12;;;;;;;15.43;3.10;;;;;;;;;;5098574;28;20040;-74
2022/07/17 10:52:39;;;;;;;2.45;1.35;;;;;;;;;;5093585;28;20071;-74
2022/07/17 10:55:19;;;;;;;7.95;2.20;;;;;;;;;;5091629;28;20048;-74
2022/07/17 10:57:47;;;;;;;3.88;1.92;;;;;;;;;;5090786;28;20047;-74
2022/07/17 11:00:13;;;;;;;4.82;1.40;;;;;;;;;;5098444;28;20047;-74
2022/07/17 11:02:39;;;;;;;3.53;1.58;;;;;;;;;;5088946;28;20068;-74
2022/07/17 11:05:10;;;;;;;3.80;1.50;;;;;;;;;;5092890;28;20032;-74
2022/07/17 11:07:36;;;;;;;4.72;1.80;;;;;;;;;;5090644;28;20055;-74
2022/07/17 11:10:03;;;;;;;4.10;1.40;;;;;;;;;;5090861;28;20031;-74
2022/07/17 11:12:33;;;;;;;7.03;2.10;;;12.80;99.90;;;;;;5089324;28;20044;-74
2022/07/17 11:15:03;;;;;;;7.28;2.22;;;20.90;97.60;;;;;;5109707;27;20050;-74
2022/07/17 11:17:29;;;;;;;4.63;1.77;;;20.80;97.20;;;;;;5095400;28;20044;-73
2022/07/17 11:19:57;;;;;;;2.47;1.42;;;20.80;97.00;;;;;;5094867;28;20050;-74
2022/07/17 11:22:24;;;;;;;4.65;1.83;;;20.70;97.00;;;;;;5090570;28;20431;-74
2022/07/17 11:24:51;;;;;;;5.10;3.22;;;20.80;96.70;;;;;;5093263;28;20401;-74
2022/07/17 11:27:30;;;;;;;5.63;1.88;;;20.80;96.50;;;;;;5110317;27;20362;-74
2022/07/17 11:29:59;;;;;;;3.22;1.65;;;20.90;96.10;;;;;;5087060;28;20152;-74
2022/07/17 11:32:32;;;;;;;5.10;2.13;;;20.90;96.20;;;;;;5081988;28;20032;-74
2022/07/17 11:34:59;;;;;;;4.22;2.08;;;20.90;96.20;;;;;;5085608;28;20333;-74
2022/07/17 11:37:30;;;;;;;4.40;1.70;;;21.00;95.90;;;;;;5088664;28;20205;-74
2022/07/17 11:39:56;;;;;;;2.90;1.95;;;21.00;95.90;;;;;;5087675;28;20408;-74
2022/07/17 11:42:23;;;;;;;4.88;2.20;;;21.00;95.70;;;;;;5086183;28;20217;-74
2022/07/17 11:44:51;;;;;;;3.08;1.73;;;21.00;95.50;;;;;;5086523;28;20090;-74
2022/07/17 11:47:26;;;;;;;5.88;2.42;;;21.00;95.40;;;;;;5083816;28;20346;-75
2022/07/17 11:50:13;;;;;;;3.53;1.90;;;21.10;95.30;;;;;;5082874;28;20032;-74
2022/07/17 11:52:44;;;;;;;3.85;2.58;;;;;;;;;;5089034;28;20032;-75
2022/07/17 11:55:11;;;;;;;3.75;1.77;;;;;;;;;;5086712;28;20089;-75
2022/07/17 11:57:48;;;;;;;3.17;1.70;;;;;;;;;;5091747;28;20126;-73
2022/07/17 12:00:19;;;;;;;3.60;1.60;;;;;;;;;;5086516;28;20440;-73
2022/07/17 12:02:46;;;;;;;4.70;2.08;;;;;;;;;;5086982;28;20044;-73
2022/07/17 12:05:12;;;;;;;3.50;2.08;;;;;;;;;;5086006;28;20545;-74
2022/07/17 12:07:46;;;;;;;2.58;1.75;;;;;;;;;;5090335;28;20070;-73
2022/07/17 12:10:22;;;;;;;4.07;2.05;;;;;;;;;;5093910;28;20047;-73
2022/07/17 12:13:07;;;;;;;4.32;1.80;;;;;;;;;;5097349;27;20040;-73
2022/07/17 12:15:38;;;;;;;3.92;2.20;;;;;;;;;;5079682;28;20482;-73
2022/07/17 12:18:04;;;;;;;2.88;1.70;;;;;;;;;;5094314;28;20378;-73
2022/07/17 12:20:44;;;;;;;6.20;2.58;;;;;;;;;;5106379;27;20117;-73
2022/07/17 12:23:26;;;;;;;4.07;1.90;;;;;;;;;;5076943;28;20054;-72
2022/07/17 12:25:52;;;;;;;6.10;2.30;;;;;;;;;;5066095;28;20035;-72
2022/07/17 12:28:18;;;;;;;3.35;2.10;;;;;;;;;;5092556;28;20036;-73
2022/07/17 12:30:44;;;;;;;8.40;2.70;;;;;;;;;;5101951;28;20071;-73
2022/07/17 12:33:11;;;;;;;5.25;2.92;;;;;;;;;;5093609;28;20247;-73
2022/07/17 12:35:37;;;;;;;4.32;1.92;;;;;;;;;;5090504;28;20040;-73
2022/07/17 12:38:03;;;;;;;3.47;2.10;;;;;;;;;;5107239;28;20075;-73
2022/07/17 12:40:29;;;;;;;5.43;2.28;;;;;;;;;;5091314;28;20046;-73
2022/07/17 12:42:56;;;;;;;4.03;1.80;;;;;;;;;;5105219;28;20048;-73
2022/07/17 12:45:22;;;;;;;5.35;2.80;;;;;;;;;;5107129;28;20059;-73
2022/07/17 12:47:48;;;;;;;3.50;1.83;;;;;;;;;;5112239;27;20039;-73
2022/07/17 12:50:14;;;;;;;4.80;2.03;;;;;;;;;;5087581;28;20075;-74
2022/07/17 12:52:40;;;;;;;6.05;2.30;;;;;;;;;;5113595;27;20401;-74
2022/07/17 12:55:07;;;;;;;3.58;2.20;;;;;;;;;;5093953;28;20094;-74
2022/07/17 12:57:33;;;;;;;6.07;2.67;;;;;;;;;;5099542;28;20101;-74
2022/07/17 13:00:00;;;;;;;3.05;2.05;;;;;;;;;;5085786;28;20047;-74
2022/07/17 13:02:26;;;;;;;4.78;1.95;;;;;;;;;;5096365;28;20044;-75
2022/07/17 13:04:52;;;;;;;4.20;2.22;;;;;;;;;;5098168;28;20481;-75
2022/07/17 13:07:18;;;;;;;4.03;2.22;;;;;;;;;;5095385;28;20040;-74
2022/07/17 13:09:44;;;;;;;4.20;2.17;;;;;;;;;;5097064;28;20182;-75
2022/07/17 13:12:10;;;;;;;4.35;1.77;;;;;;;;;;5098222;28;20391;-74
2022/07/17 13:14:36;;;;;;;4.30;2.42;;;;;;;;;;5100728;28;20195;-74
2022/07/17 13:17:03;;;;;;;3.85;2.25;;;;;;;;;;5098877;28;20524;-74
2022/07/17 13:19:29;;;;;;;4.35;2.15;;;;;;;;;;5097255;28;20390;-74
2022/07/17 13:21:55;;;;;;;6.80;2.45;;;;;;;;;;5097338;28;20473;-75
2022/07/17 13:24:21;;;;;;;4.15;2.42;;;;;;;;;;5108252;27;20071;-75
2022/07/17 13:26:47;;;;;;;3.35;1.85;;;;;;;;;;5096139;28;20048;-75
2022/07/17 13:29:13;;;;;;;4.50;2.00;;;;;;;;;;5097601;28;20055;-74
2022/07/17 13:31:40;;;;;;;5.10;2.67;;;;;;;;;;5100508;28;20048;-75
2022/07/17 13:34:06;;;;;;;3.65;1.98;;;;;;;;;;5094116;28;20044;-75
2022/07/17 13:36:32;;;;;;;4.55;1.83;;;;;;;;;;5095178;28;20122;-75
2022/07/17 13:38:58;;;;;;;4.07;1.92;;;;;;;;;;5099575;28;20036;-75
2022/07/17 13:41:24;;;;;;;3.95;2.15;;;;;;;;;;5103401;27;20408;-74
2022/07/17 13:43:51;;;;;;;5.82;2.97;;;;;;;;;;5082352;28;20110;-74
2022/07/17 13:46:17;;;;;;;4.07;2.00;;;;;;;;;;5114177;27;20035;-75
2022/07/17 13:48:43;;;;;;;4.90;2.40;;;;;;;;;;5096023;28;20043;-75
2022/07/17 13:51:09;;;;;;;3.20;2.25;;;;;;;;;;5109242;27;20040;-74
2022/07/17 13:53:35;;;;;;;3.28;2.00;;;;;;;;;;5102185;27;20044;-75
2022/07/17 13:56:01;;;;;;;9.13;2.03;;;;;;;;;;5098208;28;20040;-74
2022/07/17 13:58:29;;;;;;;4.05;2.03;;;;;;;;;;5094876;28;20040;-75
2022/07/17 14:00:55;;;;;;;3.42;2.10;;;;;;;;;;5095012;28;20051;-75
2022/07/17 14:03:22;;;;;;;3.33;2.00;;;;;;;;;;5097866;28;20079;-74
2022/07/17 14:05:48;;;;;;;3.17;1.90;;;;;;;;;;5091769;28;20054;-74
2022/07/17 14:08:15;;;;;;;3.15;1.88;;;;;;;;;;5111572;27;20047;-75